createdAt,value
2022-12-03T00:01:22.531Z,2.97
2022-12-03T00:03:49.167Z,2.84
2022-12-03T00:06:15.926Z,2.84
2022-12-03T00:08:42.384Z,2.85
2022-12-03T00:11:08.772Z,2.88
2022-12-03T00:13:35.123Z,2.90
2022-12-03T00:16:01.773Z,2.94
2022-12-03T00:18:28.332Z,3.07
2022-12-03T00:20:54.767Z,3.09
2022-12-03T00:23:21.298Z,3.22
2022-12-03T00:25:47.660Z,3.19
2022-12-03T00:28:14.193Z,3.30
2022-12-03T00:30:40.604Z,3.11
2022-12-03T00:33:07.023Z,3.16
2022-12-03T00:35:33.479Z,3.26
2022-12-03T00:38:02.712Z,3.38
2022-12-03T00:40:29.146Z,3.22
2022-12-03T00:42:55.536Z,3.15
2022-12-03T00:45:22.051Z,3.11
2022-12-03T00:47:48.856Z,3.25
2022-12-03T00:50:16.371Z,3.16
2022-12-03T00:52:42.748Z,3.15
2022-12-03T00:55:09.488Z,3.19
2022-12-03T01:00:36.617Z,3.23
2022-12-03T01:03:03.585Z,3.23
2022-12-03T01:05:29.971Z,3.19
2022-12-03T01:07:56.398Z,3.26
2022-12-03T01:10:22.889Z,3.26
2022-12-03T01:12:49.399Z,3.32
2022-12-03T01:15:15.791Z,3.32
2022-12-03T01:17:42.276Z,3.28
2022-12-03T01:20:09.622Z,3.33
2022-12-03T01:22:36.153Z,3.52
2022-12-03T01:25:03.139Z,3.43
2022-12-03T01:27:29.546Z,3.32
2022-12-03T01:29:55.923Z,3.40
2022-12-03T01:32:22.338Z,3.39
2022-12-03T01:34:54.179Z,3.39
2022-12-03T01:37:23.644Z,3.33
2022-12-03T01:39:50.587Z,3.38
2022-12-03T01:42:29.963Z,3.30
2022-12-03T01:44:58.300Z,3.32
2022-12-03T01:47:33.141Z,3.35
2022-12-03T01:50:03.791Z,3.38
2022-12-03T01:52:34.220Z,3.39
2022-12-03T01:55:04.061Z,3.50
2022-12-03T01:57:40.426Z,3.39
2022-12-03T02:00:12.859Z,3.42
2022-12-03T02:02:42.795Z,3.46
2022-12-03T02:05:22.280Z,3.48
2022-12-03T02:07:48.967Z,3.46
2022-12-03T02:10:17.684Z,3.36
2022-12-03T02:12:49.052Z,3.46
2022-12-03T02:15:18.353Z,3.49
2022-12-03T02:17:48.112Z,3.40
2022-12-03T02:20:17.936Z,3.48
2022-12-03T02:23:18.514Z,3.55
2022-12-03T02:25:44.962Z,3.40
2022-12-03T02:28:11.565Z,3.42
2022-12-03T02:30:38.037Z,3.49
2022-12-03T02:33:05.053Z,3.44
2022-12-03T02:35:36.842Z,3.48
2022-12-03T02:38:23.008Z,3.48
2022-12-03T02:40:53.590Z,3.49
2022-12-03T02:43:21.033Z,3.63
2022-12-03T02:45:52.071Z,3.76
2022-12-03T02:48:25.366Z,3.64
2022-12-03T02:50:55.129Z,3.56
2022-12-03T02:53:27.454Z,3.73
2022-12-03T02:55:56.000Z,3.63
2022-12-03T02:58:24.551Z,3.57
2022-12-03T03:00:53.548Z,3.50
2022-12-03T03:03:22.008Z,3.39
2022-12-03T03:05:50.054Z,3.40
2022-12-03T03:08:17.965Z,3.43
2022-12-03T03:10:46.686Z,3.50
2022-12-03T03:13:17.489Z,3.44
2022-12-03T03:15:44.825Z,3.28
2022-12-03T03:18:13.176Z,3.28
2022-12-03T03:20:41.407Z,3.36
2022-12-03T03:23:13.402Z,3.23
2022-12-03T03:25:42.531Z,3.28
2022-12-03T03:28:09.643Z,3.08
2022-12-03T03:30:38.650Z,3.05
2022-12-03T03:33:06.942Z,3.04
2022-12-03T03:35:33.439Z,2.88
2022-12-03T03:38:00.146Z,2.90
2022-12-03T03:40:27.554Z,2.88
2022-12-03T03:42:55.448Z,2.90
2022-12-03T03:45:27.341Z,3.01
2022-12-03T03:47:57.595Z,2.98
2022-12-03T03:50:24.522Z,3.16
2022-12-03T03:52:51.084Z,3.28
2022-12-03T03:55:18.986Z,3.30
2022-12-03T03:57:45.881Z,3.18
2022-12-03T04:00:13.583Z,3.28
2022-12-03T04:02:40.416Z,3.44
2022-12-03T04:05:07.766Z,3.49
2022-12-03T04:07:34.247Z,3.48
2022-12-03T04:10:20.745Z,3.43
2022-12-03T04:12:56.000Z,3.44
2022-12-03T04:15:23.044Z,3.32
2022-12-03T04:18:07.948Z,3.38
2022-12-03T04:20:34.437Z,3.25
2022-12-03T04:23:00.771Z,3.25
2022-12-03T04:25:45.928Z,3.18
2022-12-03T04:28:30.718Z,3.23
2022-12-03T04:30:57.325Z,3.20
2022-12-03T04:33:42.313Z,3.26
2022-12-03T04:36:08.838Z,3.26
2022-12-03T04:38:35.283Z,3.29
2022-12-03T04:41:03.697Z,3.20
2022-12-03T04:43:32.384Z,3.15
2022-12-03T04:45:59.022Z,3.30
2022-12-03T04:48:25.647Z,3.16
2022-12-03T04:50:52.115Z,3.22
2022-12-03T04:53:18.784Z,3.25
2022-12-03T04:55:45.262Z,3.13
2022-12-03T04:58:11.817Z,3.26
2022-12-03T05:00:38.336Z,3.25
2022-12-03T05:03:04.783Z,3.18
2022-12-03T05:05:31.288Z,3.12
2022-12-03T05:07:57.738Z,3.19
2022-12-03T05:10:24.264Z,3.04
2022-12-03T05:12:50.603Z,3.01
2022-12-03T05:15:16.962Z,2.98
2022-12-03T05:17:43.378Z,3.01
2022-12-03T05:20:29.091Z,3.01
2022-12-03T05:22:55.558Z,2.98
2022-12-03T05:25:21.967Z,3.09
2022-12-03T05:27:48.338Z,2.92
2022-12-03T05:30:15.000Z,2.98
2022-12-03T05:32:41.428Z,2.91
2022-12-03T05:35:08.211Z,2.90
2022-12-03T05:37:34.567Z,2.99
2022-12-03T05:40:00.934Z,2.98
2022-12-03T05:42:46.059Z,2.88
2022-12-03T05:45:12.444Z,3.08
2022-12-03T05:47:38.793Z,3.07
2022-12-03T05:50:05.832Z,3.01
2022-12-03T05:52:32.248Z,2.98
2022-12-03T05:54:58.887Z,3.11
2022-12-03T05:57:25.279Z,2.98
2022-12-03T05:59:51.726Z,3.15
2022-12-03T06:02:18.197Z,3.12
2022-12-03T06:04:44.695Z,3.02
2022-12-03T06:07:14.129Z,3.02
2022-12-03T06:09:41.023Z,2.97
2022-12-03T06:12:08.654Z,3.11
2022-12-03T06:14:35.642Z,2.87
2022-12-03T06:17:02.552Z,2.94
2022-12-03T06:19:28.927Z,2.91
2022-12-03T06:21:55.499Z,2.85
2022-12-03T06:24:21.873Z,2.85
2022-12-03T06:26:48.223Z,2.77
2022-12-03T06:29:14.649Z,2.74
2022-12-03T06:31:41.030Z,2.57
2022-12-03T06:34:07.472Z,2.53
2022-12-03T06:36:33.862Z,2.30
2022-12-03T06:39:00.309Z,2.30
2022-12-03T06:41:26.733Z,2.40
2022-12-03T06:43:53.091Z,2.40
2022-12-03T06:46:19.515Z,2.43
2022-12-03T06:48:45.957Z,2.61
2022-12-03T06:51:12.324Z,2.71
2022-12-03T06:53:38.734Z,2.83
2022-12-03T06:56:05.811Z,3.05
2022-12-03T06:58:32.174Z,3.05
2022-12-03T07:00:58.557Z,3.19
2022-12-03T07:03:25.045Z,3.19
2022-12-03T07:05:51.488Z,3.02
2022-12-03T07:08:17.894Z,3.05
2022-12-03T07:10:44.450Z,3.08
2022-12-03T07:13:10.838Z,2.97
2022-12-03T07:15:37.209Z,3.07
2022-12-03T07:18:03.561Z,3.13
2022-12-03T07:20:29.927Z,2.95
2022-12-03T07:22:56.343Z,3.19
2022-12-03T07:25:23.773Z,2.90
2022-12-03T07:27:50.373Z,3.09
2022-12-03T07:32:50.286Z,2.98
2022-12-03T07:35:17.377Z,3.02
2022-12-03T07:37:43.810Z,3.02
2022-12-03T07:40:10.916Z,3.11
2022-12-03T07:42:37.286Z,2.99
2022-12-03T07:45:04.558Z,3.13
2022-12-03T07:47:31.096Z,3.11
2022-12-03T07:49:57.532Z,3.30
2022-12-03T07:52:23.903Z,3.09
2022-12-03T07:54:50.294Z,3.11
2022-12-03T07:57:16.686Z,3.07
2022-12-03T07:59:43.042Z,3.16
2022-12-03T08:02:09.581Z,2.91
2022-12-03T08:04:36.092Z,2.91
2022-12-03T08:07:02.436Z,2.97
2022-12-03T08:09:28.821Z,3.16
2022-12-03T08:11:55.477Z,3.13
2022-12-03T08:14:22.119Z,3.18
2022-12-03T08:16:48.803Z,3.02
2022-12-03T08:19:17.178Z,3.22
2022-12-03T08:21:44.618Z,3.15
2022-12-03T08:24:19.645Z,3.12
2022-12-03T08:26:48.842Z,2.95
2022-12-03T08:29:18.361Z,2.91
2022-12-03T08:31:55.112Z,2.94
2022-12-03T08:34:27.660Z,2.94
2022-12-03T08:37:05.725Z,2.98
2022-12-03T08:39:34.800Z,3.02
2022-12-03T08:42:26.024Z,3.20
2022-12-03T08:44:52.791Z,3.13
2022-12-03T08:47:21.114Z,3.22
2022-12-03T08:49:54.355Z,3.23
2022-12-03T08:52:22.644Z,3.30
2022-12-03T08:54:57.072Z,3.48
2022-12-03T08:57:34.756Z,3.44
2022-12-03T09:00:18.380Z,3.38
2022-12-03T09:02:47.806Z,3.25
2022-12-03T09:05:32.270Z,3.28
2022-12-03T09:07:58.756Z,3.33
2022-12-03T09:10:25.217Z,3.30
2022-12-03T09:12:51.848Z,3.40
2022-12-03T09:15:18.365Z,3.55
2022-12-03T09:17:44.964Z,3.43
2022-12-03T09:20:11.860Z,3.69
2022-12-03T09:22:38.278Z,3.69
2022-12-03T09:25:05.406Z,3.69
2022-12-03T09:27:31.830Z,3.73
2022-12-03T09:29:58.458Z,3.88
2022-12-03T09:32:25.426Z,3.76
2022-12-03T09:34:52.256Z,3.76
2022-12-03T09:37:18.943Z,3.78
2022-12-03T09:39:45.559Z,3.78
2022-12-03T09:42:12.262Z,3.99
2022-12-03T09:44:39.024Z,4.11
2022-12-03T09:47:06.076Z,3.91
2022-12-03T09:49:35.761Z,4.08
2022-12-03T09:52:04.059Z,3.78
2022-12-03T09:54:32.641Z,3.98
2022-12-03T09:57:02.192Z,3.86
2022-12-03T09:59:34.213Z,3.97
2022-12-03T10:02:01.796Z,4.02
2022-12-03T10:04:29.017Z,4.27
2022-12-03T10:06:58.448Z,4.18
2022-12-03T10:09:28.006Z,4.14
2022-12-03T10:11:56.361Z,4.18
2022-12-03T10:14:22.930Z,4.29
2022-12-03T10:16:49.652Z,4.27
2022-12-03T10:19:21.900Z,4.44
2022-12-03T10:21:48.538Z,4.02
2022-12-03T10:24:22.184Z,3.99
2022-12-03T10:26:51.137Z,4.07
2022-12-03T10:29:20.287Z,4.14
2022-12-03T10:31:55.015Z,4.19
2022-12-03T10:34:35.905Z,3.99
2022-12-03T10:37:22.250Z,4.12
2022-12-03T10:40:00.583Z,4.32
2022-12-03T10:42:30.075Z,4.34
2022-12-03T10:45:14.339Z,4.24
2022-12-03T10:47:41.985Z,4.04
2022-12-03T10:50:20.015Z,4.08
2022-12-03T10:52:47.007Z,4.34
2022-12-03T10:55:15.858Z,4.31
2022-12-03T10:57:45.502Z,4.21
2022-12-03T11:00:17.666Z,4.19
2022-12-03T11:02:45.081Z,4.18
2022-12-03T11:05:23.112Z,4.29
2022-12-03T11:07:50.192Z,4.46
2022-12-03T11:10:18.836Z,4.25
2022-12-03T11:13:23.164Z,4.22
2022-12-03T11:15:49.588Z,4.12
2022-12-03T11:18:34.421Z,4.08
2022-12-03T11:21:05.330Z,4.19
2022-12-03T11:23:44.104Z,4.27
2022-12-03T11:26:19.605Z,4.45
2022-12-03T11:28:46.353Z,4.34
2022-12-03T11:31:49.841Z,4.15
2022-12-03T11:34:16.279Z,4.15
2022-12-03T11:37:10.750Z,4.29
2022-12-03T11:40:00.411Z,4.27
2022-12-03T11:42:39.216Z,4.24
2022-12-03T11:45:05.524Z,4.41
2022-12-03T11:47:37.092Z,4.45
2022-12-03T11:50:18.101Z,4.44
2022-12-03T11:52:46.766Z,4.35
2022-12-03T11:55:46.695Z,4.29
2022-12-03T11:58:27.394Z,4.31
2022-12-03T12:00:58.887Z,4.35
2022-12-03T12:03:34.451Z,4.25
2022-12-03T12:06:07.069Z,4.34
2022-12-03T12:08:36.010Z,4.50
2022-12-03T12:11:03.274Z,4.39
2022-12-03T12:13:33.841Z,4.34
2022-12-03T12:16:05.891Z,4.41
2022-12-03T12:18:55.767Z,4.27
2022-12-03T12:21:50.676Z,4.17
2022-12-03T12:24:46.308Z,4.18
2022-12-03T12:27:37.733Z,4.18
2022-12-03T12:30:09.660Z,4.14
2022-12-03T12:32:55.256Z,4.22
2022-12-03T12:35:27.308Z,4.31
2022-12-03T12:37:59.655Z,4.34
2022-12-03T12:40:30.250Z,4.41
2022-12-03T12:42:59.570Z,4.28
2022-12-03T12:45:30.105Z,4.22
2022-12-03T12:48:22.626Z,4.32
2022-12-03T12:50:57.020Z,4.39
2022-12-03T12:53:35.652Z,4.32
2022-12-03T12:56:07.209Z,4.45
2022-12-03T12:58:34.307Z,4.36
2022-12-03T13:01:05.655Z,4.39
2022-12-03T13:03:36.786Z,4.25
2022-12-03T13:06:03.507Z,4.05
2022-12-03T13:08:33.354Z,4.17
2022-12-03T13:11:01.575Z,4.09
2022-12-03T13:13:43.292Z,4.11
2022-12-03T13:16:19.359Z,4.18
2022-12-03T13:18:53.194Z,4.19
2022-12-03T13:21:24.451Z,4.17
2022-12-03T13:23:54.449Z,4.27
2022-12-03T13:26:34.633Z,4.25
2022-12-03T13:29:23.348Z,4.41
2022-12-03T13:31:57.993Z,4.22
2022-12-03T13:34:27.204Z,4.24
2022-12-03T13:36:58.083Z,4.12
2022-12-03T13:39:30.931Z,4.08
2022-12-03T13:42:27.207Z,4.19
2022-12-03T13:44:54.208Z,4.08
2022-12-03T13:47:23.454Z,4.04
2022-12-03T13:49:57.183Z,4.07
2022-12-03T13:52:25.894Z,4.19
2022-12-03T13:54:54.760Z,4.05
2022-12-03T13:57:21.455Z,3.97
2022-12-03T13:59:47.949Z,4.04
2022-12-03T14:02:14.423Z,4.09
2022-12-03T14:04:41.732Z,4.14
2022-12-03T14:07:08.096Z,4.19
2022-12-03T14:09:34.534Z,4.31
2022-12-03T14:12:19.737Z,4.19
2022-12-03T14:14:46.176Z,4.24
2022-12-03T14:17:12.685Z,4.24
2022-12-03T14:19:39.237Z,4.35
2022-12-03T14:22:07.909Z,4.15
2022-12-03T14:24:34.355Z,4.28
2022-12-03T14:27:00.873Z,4.32
2022-12-03T14:29:30.464Z,4.27
2022-12-03T14:31:57.233Z,4.24
2022-12-03T14:34:26.811Z,4.32
2022-12-03T14:36:53.389Z,4.31
2022-12-03T14:39:19.958Z,4.19
2022-12-03T14:42:05.156Z,4.24
2022-12-03T14:44:31.542Z,4.22
2022-12-03T14:46:57.931Z,4.31
2022-12-03T14:49:25.819Z,4.28
2022-12-03T14:51:52.212Z,4.29
2022-12-03T14:54:18.766Z,4.29
2022-12-03T14:56:45.305Z,4.53
2022-12-03T14:59:11.649Z,4.38
2022-12-03T15:01:38.282Z,4.34
2022-12-03T15:04:05.266Z,4.21
2022-12-03T15:06:31.621Z,4.46
2022-12-03T15:08:58.074Z,4.29
2022-12-03T15:11:24.446Z,4.28
2022-12-03T15:13:50.960Z,4.22
2022-12-03T15:16:17.574Z,4.19
2022-12-03T15:18:46.732Z,4.19
2022-12-03T15:21:13.082Z,4.21
2022-12-03T15:23:39.526Z,4.24
2022-12-03T15:26:06.124Z,4.11
2022-12-03T15:28:32.647Z,4.07
2022-12-03T15:30:59.139Z,4.01
2022-12-03T15:33:25.715Z,4.04
2022-12-03T15:35:52.199Z,4.15
2022-12-03T15:38:19.264Z,4.05
2022-12-03T15:40:45.703Z,4.07
2022-12-03T15:43:12.346Z,4.04
2022-12-03T15:45:38.759Z,4.05
2022-12-03T15:48:05.600Z,4.08
2022-12-03T15:50:35.773Z,4.07
2022-12-03T15:53:06.190Z,4.22
2022-12-03T15:55:32.614Z,4.08
2022-12-03T15:57:58.992Z,4.12
2022-12-03T16:00:25.449Z,4.04
2022-12-03T16:02:53.058Z,4.17
2022-12-03T16:05:19.797Z,4.09
2022-12-03T16:07:46.187Z,4.02
2022-12-03T16:10:13.087Z,3.95
2022-12-03T16:12:39.540Z,3.94
2022-12-03T16:15:06.348Z,4.02
2022-12-03T16:17:32.774Z,4.01
2022-12-03T16:19:59.194Z,4.01
2022-12-03T16:22:25.627Z,3.99
2022-12-03T16:24:52.029Z,4.01
2022-12-03T16:27:21.643Z,4.09
2022-12-03T16:29:52.012Z,4.12
2022-12-03T16:32:18.772Z,3.99
2022-12-03T16:34:45.284Z,3.97
2022-12-03T16:37:11.752Z,4.14
2022-12-03T16:39:39.115Z,4.19
2022-12-03T16:42:10.209Z,4.11
2022-12-03T16:44:59.296Z,3.98
2022-12-03T16:47:30.627Z,4.21
2022-12-03T16:50:00.671Z,3.98
2022-12-03T16:52:27.409Z,4.05
2022-12-03T16:54:53.952Z,4.14
2022-12-03T16:57:20.450Z,4.07
2022-12-03T16:59:47.005Z,4.04
2022-12-03T17:02:13.772Z,3.98
2022-12-03T17:04:40.263Z,4.04
2022-12-03T17:07:06.923Z,3.90
2022-12-03T17:09:33.591Z,3.90
2022-12-03T17:12:00.097Z,3.97
2022-12-03T17:14:31.587Z,4.05
2022-12-03T17:17:00.215Z,3.98
2022-12-03T17:19:26.742Z,4.02
2022-12-03T17:21:54.105Z,3.98
2022-12-03T17:24:21.560Z,3.91
2022-12-03T17:26:48.520Z,4.02
2022-12-03T17:29:15.038Z,3.84
2022-12-03T17:31:42.600Z,3.73
2022-12-03T17:34:09.839Z,3.73
2022-12-03T17:36:36.272Z,3.76
2022-12-03T17:39:02.920Z,3.70
2022-12-03T17:41:29.414Z,3.84
2022-12-03T17:43:55.769Z,3.76
2022-12-03T17:46:22.237Z,3.97
2022-12-03T17:48:48.786Z,4.17
2022-12-03T17:51:15.667Z,3.98
2022-12-03T17:53:42.044Z,3.87
2022-12-03T17:56:08.411Z,3.90
2022-12-03T17:58:34.819Z,3.93
2022-12-03T18:01:03.595Z,3.90
2022-12-03T18:03:30.560Z,3.97
2022-12-03T18:05:57.056Z,4.11
2022-12-03T18:08:23.536Z,4.08
2022-12-03T18:10:50.390Z,4.28
2022-12-03T18:13:16.803Z,4.18
2022-12-03T18:15:43.452Z,4.27
2022-12-03T18:18:11.461Z,4.04
2022-12-03T18:20:38.254Z,3.90
2022-12-03T18:23:04.923Z,4.01
2022-12-03T18:25:31.762Z,3.98
2022-12-03T18:27:58.427Z,4.02
2022-12-03T18:30:25.435Z,3.97
2022-12-03T18:32:52.185Z,3.91
2022-12-03T18:35:20.068Z,4.07
2022-12-03T18:37:46.643Z,4.11
2022-12-03T18:40:19.268Z,4.11
2022-12-03T18:42:46.954Z,4.11
2022-12-03T18:45:15.340Z,4.21
2022-12-03T18:47:42.228Z,3.98
2022-12-03T18:50:10.249Z,4.04
2022-12-03T18:52:36.691Z,3.84
2022-12-03T18:57:36.682Z,4.11
2022-12-03T19:00:11.782Z,3.93
2022-12-03T19:03:01.972Z,3.90
2022-12-03T19:05:26.370Z,3.77
2022-12-03T19:07:55.258Z,3.77
2022-12-03T19:10:23.195Z,3.73
2022-12-03T19:12:49.745Z,3.78
2022-12-03T19:15:16.329Z,3.88
2022-12-03T19:17:42.898Z,3.86
2022-12-03T19:20:11.194Z,3.88
2022-12-03T19:22:37.723Z,3.95
2022-12-03T19:25:04.744Z,3.98
2022-12-03T19:27:31.527Z,3.91
2022-12-03T19:29:58.528Z,3.80
2022-12-03T19:32:25.150Z,3.84
2022-12-03T19:34:51.671Z,3.81
2022-12-03T19:37:18.205Z,3.78
2022-12-03T19:39:44.724Z,3.80
2022-12-03T19:42:11.271Z,3.73
2022-12-03T19:44:37.941Z,3.81
2022-12-03T19:47:04.565Z,3.74
2022-12-03T19:49:31.184Z,3.74
2022-12-03T19:51:57.775Z,3.83
2022-12-03T19:54:24.358Z,3.81
2022-12-03T19:56:51.155Z,3.69
2022-12-03T19:59:17.650Z,3.70
2022-12-03T20:01:44.497Z,3.78
2022-12-03T20:04:12.039Z,3.69
2022-12-03T20:06:39.261Z,3.74
2022-12-03T20:09:10.654Z,3.71
2022-12-03T20:11:37.740Z,3.69
2022-12-03T20:14:06.897Z,3.60
2022-12-03T20:16:34.364Z,3.57
2022-12-03T20:19:07.155Z,3.56
2022-12-03T20:21:36.437Z,3.46
2022-12-03T20:24:03.680Z,3.49
2022-12-03T20:26:30.539Z,3.74
2022-12-03T20:28:57.761Z,3.67
2022-12-03T20:31:27.077Z,3.71
2022-12-03T20:33:57.198Z,3.74
2022-12-03T20:36:24.549Z,3.73
2022-12-03T20:38:59.872Z,3.73
2022-12-03T20:41:27.633Z,3.69
2022-12-03T20:43:54.222Z,3.56
2022-12-03T20:46:26.446Z,3.53
2022-12-03T20:48:54.190Z,3.56
2022-12-03T20:51:23.643Z,3.57
2022-12-03T20:53:53.479Z,3.60
2022-12-03T20:56:26.474Z,3.56
2022-12-03T20:58:53.682Z,3.63
2022-12-03T21:01:26.385Z,3.66
2022-12-03T21:03:55.501Z,3.59
2022-12-03T21:06:24.605Z,3.62
2022-12-03T21:08:53.445Z,3.60
2022-12-03T21:11:25.686Z,3.66
2022-12-03T21:13:54.027Z,3.56
2022-12-03T21:16:45.674Z,3.66
2022-12-03T21:21:53.123Z,3.76
2022-12-03T21:24:19.656Z,3.55
2022-12-03T21:26:46.298Z,3.60
2022-12-03T21:29:13.016Z,3.70
2022-12-03T21:31:40.044Z,3.52
2022-12-03T21:34:08.472Z,3.52
2022-12-03T21:36:35.064Z,3.56
2022-12-03T21:39:01.737Z,3.63
2022-12-03T21:41:28.453Z,3.78
2022-12-03T21:43:55.148Z,3.64
2022-12-03T21:47:12.825Z,3.62
2022-12-03T21:49:08.412Z,3.60
2022-12-03T21:51:35.144Z,3.66
2022-12-03T21:54:01.752Z,3.57
2022-12-03T21:56:30.787Z,3.81
2022-12-03T21:58:57.693Z,3.71
2022-12-03T22:01:24.837Z,3.64
2022-12-03T22:03:51.929Z,3.62
2022-12-03T22:06:19.585Z,3.67
2022-12-03T22:08:46.812Z,3.70
2022-12-03T22:11:19.391Z,3.53
2022-12-03T22:13:46.598Z,3.50
2022-12-03T22:16:18.986Z,3.56
2022-12-03T22:18:46.274Z,3.69
2022-12-03T22:21:16.057Z,3.55
2022-12-03T22:23:42.919Z,3.63
2022-12-03T22:26:14.474Z,3.60
2022-12-03T22:28:49.007Z,3.57
2022-12-03T22:31:17.435Z,3.66
2022-12-03T22:33:48.074Z,3.55
2022-12-03T22:36:20.583Z,3.60
2022-12-03T22:38:49.341Z,3.60
2022-12-03T22:41:15.998Z,3.73
2022-12-03T22:43:42.975Z,3.69
2022-12-03T22:46:13.329Z,3.67
2022-12-03T22:48:41.797Z,3.87
2022-12-03T22:51:15.830Z,3.69
2022-12-03T22:53:42.336Z,3.59
2022-12-03T22:56:09.303Z,3.48
2022-12-03T22:58:37.795Z,3.55
2022-12-03T23:01:07.677Z,3.77
2022-12-03T23:03:34.317Z,3.62
2022-12-03T23:06:00.877Z,3.69
2022-12-03T23:08:27.602Z,3.56
2022-12-03T23:10:54.219Z,3.50
2022-12-03T23:13:21.005Z,3.50
2022-12-03T23:15:50.497Z,3.52
2022-12-03T23:18:20.423Z,3.56
2022-12-03T23:20:52.831Z,3.70
2022-12-03T23:23:20.916Z,3.53
2022-12-03T23:26:16.943Z,3.50
2022-12-03T23:28:45.574Z,3.50
2022-12-03T23:31:21.759Z,3.76
2022-12-03T23:33:48.409Z,3.67
2022-12-03T23:36:16.227Z,3.73
2022-12-03T23:38:43.406Z,3.71
2022-12-03T23:41:13.634Z,3.67
2022-12-03T23:43:41.074Z,3.56
2022-12-03T23:46:12.951Z,3.55
2022-12-03T23:48:39.657Z,3.57
2022-12-03T23:51:12.837Z,3.62
2022-12-03T23:53:40.185Z,3.63
2022-12-03T23:56:17.910Z,3.60
2022-12-03T23:58:45.409Z,3.59
